Terminal Aerodrome Forecast
Issued by NWS

Home | Current Version | Previous Version | Text Only | Print | Product List | Glossary On
Versions: 1 2 3 4 5 6 7 8 9 10 11 12
000
FTUS44 KOUN 282320
TAFGAG
TAF
KGAG 282320Z 2900/2924 06008KT P6SM BKN120 BKN250
     FM290200 03015G22KT 3SM TSRA OVC015CB
     FM291000 36018G25KT 2SM SHRA BR OVC015
     FM291500 02016G22KT 5SM BR OVC007=

USA.gov is the U.S. government's official web portal to all federal, state and local government web resources and services.